Aviation Digital Data Service (ADDS)

Output produced by METARs form (0551 UTC 28 September 2022)
found at http://www.aviationweather.gov/metar/data/
 
LHPR 280515Z AUTO 16005KT 9999 BKN030 09/08 Q1003 NOSIG
LHPR 280445Z AUTO 18005KT 9999 BKN042 08/07 Q1003 NOSIG
LHPR 280415Z AUTO 12003KT 080V150 9999 BKN031 BKN054 BKN069 07/06 Q1003 NOSIG
LHPR 280345Z AUTO VRB02KT 9999 FEW024 BKN038 07/06 Q1003
LHPR 280315Z AUTO 16003KT CAVOK 07/05 Q1003
LHPR 280245Z AUTO 00000KT CAVOK 07/05 Q1003
LHPR 280215Z AUTO 26002KT CAVOK 07/06 Q1004
LHPR 280145Z AUTO 26003KT CAVOK 08/05 Q1003
LHPR 280115Z AUTO 30003KT CAVOK 07/06 Q1003
LHPR 280045Z AUTO 27004KT CAVOK 08/05 Q1003
LHPR 280015Z AUTO 24003KT CAVOK 08/05 Q1004
TAF LHPR 280515Z 2806/2815 17005KT 9999 SCT033 
     BECMG 2807/2810 20012KT 
     BECMG 2810/2813 17015G25KT